sensor_id;sensor_type;location;lat;lon;timestamp;P1;durP1;ratioP1;P2;durP2;ratioP2
10162;SDS011;5123;52.556;13.384;2023-04-23T00:00:22;11.23;;;8.47;;
10162;SDS011;5123;52.556;13.384;2023-04-23T00:02:55;10.60;;;9.43;;
10162;SDS011;5123;52.556;13.384;2023-04-23T00:05:29;14.03;;;9.73;;
10162;SDS011;5123;52.556;13.384;2023-04-23T00:08:05;13.93;;;9.50;;
10162;SDS011;5123;52.556;13.384;2023-04-23T00:10:42;12.57;;;9.50;;
10162;SDS011;5123;52.556;13.384;2023-04-23T00:13:15;11.60;;;9.07;;
10162;SDS011;5123;52.556;13.384;2023-04-23T00:15:49;11.47;;;9.03;;
10162;SDS011;5123;52.556;13.384;2023-04-23T00:18:22;11.83;;;9.40;;
10162;SDS011;5123;52.556;13.384;2023-04-23T00:20:56;9.93;;;8.67;;
10162;SDS011;5123;52.556;13.384;2023-04-23T00:23:30;10.37;;;8.93;;
10162;SDS011;5123;52.556;13.384;2023-04-23T00:26:04;13.77;;;10.23;;
10162;SDS011;5123;52.556;13.384;2023-04-23T00:28:38;13.50;;;9.63;;
10162;SDS011;5123;52.556;13.384;2023-04-23T00:31:11;11.13;;;9.90;;
10162;SDS011;5123;52.556;13.384;2023-04-23T00:33:44;14.10;;;8.93;;
10162;SDS011;5123;52.556;13.384;2023-04-23T00:36:17;13.37;;;9.57;;
10162;SDS011;5123;52.556;13.384;2023-04-23T00:38:52;12.37;;;9.47;;
10162;SDS011;5123;52.556;13.384;2023-04-23T00:41:25;10.27;;;9.27;;
10162;SDS011;5123;52.556;13.384;2023-04-23T00:43:59;9.70;;;8.70;;
10162;SDS011;5123;52.556;13.384;2023-04-23T00:46:32;9.87;;;8.50;;
10162;SDS011;5123;52.556;13.384;2023-04-23T00:49:05;10.23;;;9.23;;
10162;SDS011;5123;52.556;13.384;2023-04-23T00:51:39;13.53;;;9.43;;
10162;SDS011;5123;52.556;13.384;2023-04-23T00:54:14;14.40;;;10.03;;
10162;SDS011;5123;52.556;13.384;2023-04-23T00:56:47;12.93;;;9.43;;
10162;SDS011;5123;52.556;13.384;2023-04-23T00:59:22;14.60;;;9.70;;
10162;SDS011;5123;52.556;13.384;2023-04-23T01:01:56;13.07;;;9.60;;
10162;SDS011;5123;52.556;13.384;2023-04-23T01:04:29;10.50;;;9.40;;
10162;SDS011;5123;52.556;13.384;2023-04-23T01:07:02;10.53;;;9.37;;
10162;SDS011;5123;52.556;13.384;2023-04-23T01:09:38;12.30;;;10.03;;
10162;SDS011;5123;52.556;13.384;2023-04-23T01:12:11;12.03;;;9.67;;
10162;SDS011;5123;52.556;13.384;2023-04-23T01:14:45;10.97;;;8.93;;
10162;SDS011;5123;52.556;13.384;2023-04-23T01:17:19;11.30;;;8.40;;
10162;SDS011;5123;52.556;13.384;2023-04-23T01:19:53;12.47;;;9.63;;
10162;SDS011;5123;52.556;13.384;2023-04-23T01:22:28;12.40;;;10.00;;
10162;SDS011;5123;52.556;13.384;2023-04-23T01:25:03;10.53;;;9.53;;
10162;SDS011;5123;52.556;13.384;2023-04-23T01:27:36;10.70;;;9.40;;
10162;SDS011;5123;52.556;13.384;2023-04-23T01:30:10;11.17;;;10.00;;
10162;SDS011;5123;52.556;13.384;2023-04-23T01:32:43;13.43;;;9.10;;
10162;SDS011;5123;52.556;13.384;2023-04-23T01:35:16;10.90;;;9.77;;
10162;SDS011;5123;52.556;13.384;2023-04-23T01:37:51;12.50;;;10.13;;
10162;SDS011;5123;52.556;13.384;2023-04-23T01:40:27;11.83;;;9.77;;
10162;SDS011;5123;52.556;13.384;2023-04-23T01:43:00;11.70;;;10.03;;
10162;SDS011;5123;52.556;13.384;2023-04-23T01:45:33;10.27;;;9.27;;
10162;SDS011;5123;52.556;13.384;2023-04-23T01:48:06;10.93;;;9.83;;
10162;SDS011;5123;52.556;13.384;2023-04-23T01:50:40;12.37;;;9.67;;
10162;SDS011;5123;52.556;13.384;2023-04-23T01:53:14;13.27;;;10.00;;
10162;SDS011;5123;52.556;13.384;2023-04-23T01:55:49;10.50;;;9.23;;
10162;SDS011;5123;52.556;13.384;2023-04-23T01:58:23;12.20;;;9.70;;
10162;SDS011;5123;52.556;13.384;2023-04-23T02:00:56;12.40;;;9.80;;
10162;SDS011;5123;52.556;13.384;2023-04-23T02:03:32;10.70;;;9.63;;
10162;SDS011;5123;52.556;13.384;2023-04-23T02:06:05;9.93;;;8.77;;
10162;SDS011;5123;52.556;13.384;2023-04-23T02:08:40;11.50;;;9.40;;
10162;SDS011;5123;52.556;13.384;2023-04-23T02:11:13;13.47;;;9.60;;
10162;SDS011;5123;52.556;13.384;2023-04-23T02:13:46;12.00;;;10.37;;
10162;SDS011;5123;52.556;13.384;2023-04-23T02:16:19;12.33;;;9.63;;
10162;SDS011;5123;52.556;13.384;2023-04-23T02:18:55;15.13;;;10.83;;
10162;SDS011;5123;52.556;13.384;2023-04-23T02:21:28;11.93;;;10.40;;
10162;SDS011;5123;52.556;13.384;2023-04-23T02:24:03;11.90;;;10.60;;
10162;SDS011;5123;52.556;13.384;2023-04-23T02:26:36;15.00;;;12.17;;
10162;SDS011;5123;52.556;13.384;2023-04-23T02:29:09;12.77;;;11.50;;
10162;SDS011;5123;52.556;13.384;2023-04-23T02:31:42;13.33;;;10.63;;
10162;SDS011;5123;52.556;13.384;2023-04-23T02:34:17;14.70;;;11.53;;
10162;SDS011;5123;52.556;13.384;2023-04-23T02:36:50;13.60;;;12.20;;
10162;SDS011;5123;52.556;13.384;2023-04-23T02:39:25;14.37;;;11.47;;
10162;SDS011;5123;52.556;13.384;2023-04-23T02:41:58;17.03;;;11.90;;
10162;SDS011;5123;52.556;13.384;2023-04-23T02:44:31;14.70;;;12.43;;
10162;SDS011;5123;52.556;13.384;2023-04-23T02:47:04;14.23;;;12.83;;
10162;SDS011;5123;52.556;13.384;2023-04-23T02:49:37;13.83;;;12.23;;
10162;SDS011;5123;52.556;13.384;2023-04-23T02:52:11;14.30;;;12.37;;
10162;SDS011;5123;52.556;13.384;2023-04-23T02:54:45;14.13;;;12.73;;
10162;SDS011;5123;52.556;13.384;2023-04-23T02:57:18;13.43;;;12.03;;
10162;SDS011;5123;52.556;13.384;2023-04-23T02:59:51;14.60;;;13.17;;
10162;SDS011;5123;52.556;13.384;2023-04-23T03:02:25;14.00;;;12.60;;
10162;SDS011;5123;52.556;13.384;2023-04-23T03:04:58;14.47;;;12.87;;
10162;SDS011;5123;52.556;13.384;2023-04-23T03:07:31;13.10;;;11.80;;
10162;SDS011;5123;52.556;13.384;2023-04-23T03:10:06;13.33;;;12.13;;
10162;SDS011;5123;52.556;13.384;2023-04-23T03:12:40;18.67;;;12.90;;
10162;SDS011;5123;52.556;13.384;2023-04-23T03:15:13;14.73;;;11.83;;
10162;SDS011;5123;52.556;13.384;2023-04-23T03:17:46;14.00;;;12.03;;
10162;SDS011;5123;52.556;13.384;2023-04-23T03:20:21;13.83;;;12.43;;
10162;SDS011;5123;52.556;13.384;2023-04-23T03:22:54;13.47;;;12.00;;
10162;SDS011;5123;52.556;13.384;2023-04-23T03:25:28;13.33;;;11.93;;
10162;SDS011;5123;52.556;13.384;2023-04-23T03:28:01;14.73;;;11.97;;
10162;SDS011;5123;52.556;13.384;2023-04-23T03:30:34;12.90;;;10.87;;
10162;SDS011;5123;52.556;13.384;2023-04-23T03:33:07;12.30;;;11.03;;
10162;SDS011;5123;52.556;13.384;2023-04-23T03:35:40;14.30;;;11.37;;
10162;SDS011;5123;52.556;13.384;2023-04-23T03:38:13;12.03;;;10.67;;
10162;SDS011;5123;52.556;13.384;2023-04-23T03:40:47;11.80;;;10.60;;
10162;SDS011;5123;52.556;13.384;2023-04-23T03:43:20;11.23;;;10.17;;
10162;SDS011;5123;52.556;13.384;2023-04-23T03:45:53;12.10;;;10.60;;
10162;SDS011;5123;52.556;13.384;2023-04-23T03:48:26;11.47;;;10.27;;
10162;SDS011;5123;52.556;13.384;2023-04-23T03:50:59;14.43;;;11.03;;
10162;SDS011;5123;52.556;13.384;2023-04-23T03:53:32;12.30;;;11.00;;
10162;SDS011;5123;52.556;13.384;2023-04-23T03:56:07;11.60;;;10.40;;
10162;SDS011;5123;52.556;13.384;2023-04-23T03:58:40;12.90;;;11.47;;
10162;SDS011;5123;52.556;13.384;2023-04-23T04:01:13;14.60;;;10.93;;
10162;SDS011;5123;52.556;13.384;2023-04-23T04:03:46;12.27;;;11.00;;
10162;SDS011;5123;52.556;13.384;2023-04-23T04:06:19;12.43;;;10.80;;
10162;SDS011;5123;52.556;13.384;2023-04-23T04:08:52;11.60;;;10.40;;
10162;SDS011;5123;52.556;13.384;2023-04-23T04:11:26;11.37;;;9.80;;
10162;SDS011;5123;52.556;13.384;2023-04-23T04:13:59;11.63;;;10.50;;
10162;SDS011;5123;52.556;13.384;2023-04-23T04:16:32;10.53;;;9.53;;
10162;SDS011;5123;52.556;13.384;2023-04-23T04:19:05;10.20;;;9.20;;
10162;SDS011;5123;52.556;13.384;2023-04-23T04:21:40;11.10;;;9.30;;
10162;SDS011;5123;52.556;13.384;2023-04-23T04:24:13;10.90;;;9.23;;
10162;SDS011;5123;52.556;13.384;2023-04-23T04:26:48;10.50;;;9.40;;
10162;SDS011;5123;52.556;13.384;2023-04-23T04:29:23;12.73;;;9.97;;
10162;SDS011;5123;52.556;13.384;2023-04-23T04:31:56;11.67;;;10.57;;
10162;SDS011;5123;52.556;13.384;2023-04-23T04:34:33;10.83;;;9.40;;
10162;SDS011;5123;52.556;13.384;2023-04-23T04:37:06;11.07;;;9.27;;
10162;SDS011;5123;52.556;13.384;2023-04-23T04:39:41;9.60;;;8.70;;
10162;SDS011;5123;52.556;13.384;2023-04-23T04:42:17;10.77;;;8.80;;
10162;SDS011;5123;52.556;13.384;2023-04-23T04:44:50;9.97;;;8.97;;
10162;SDS011;5123;52.556;13.384;2023-04-23T04:47:23;13.67;;;9.27;;
10162;SDS011;5123;52.556;13.384;2023-04-23T04:49:56;10.80;;;9.07;;
10162;SDS011;5123;52.556;13.384;2023-04-23T04:52:30;11.37;;;8.53;;
10162;SDS011;5123;52.556;13.384;2023-04-23T04:55:04;9.70;;;8.73;;
10162;SDS011;5123;52.556;13.384;2023-04-23T04:57:39;8.53;;;7.63;;
10162;SDS011;5123;52.556;13.384;2023-04-23T05:00:18;12.17;;;8.07;;
10162;SDS011;5123;52.556;13.384;2023-04-23T05:02:54;8.97;;;8.07;;
10162;SDS011;5123;52.556;13.384;2023-04-23T05:05:27;11.40;;;8.77;;
10162;SDS011;5123;52.556;13.384;2023-04-23T05:08:00;12.07;;;9.57;;
10162;SDS011;5123;52.556;13.384;2023-04-23T05:10:33;9.00;;;8.10;;
10162;SDS011;5123;52.556;13.384;2023-04-23T05:13:08;12.07;;;8.87;;
10162;SDS011;5123;52.556;13.384;2023-04-23T05:15:40;8.90;;;8.00;;
10162;SDS011;5123;52.556;13.384;2023-04-23T05:18:13;10.17;;;8.67;;
10162;SDS011;5123;52.556;13.384;2023-04-23T05:20:46;9.83;;;8.37;;
10162;SDS011;5123;52.556;13.384;2023-04-23T05:23:19;10.20;;;7.90;;
10162;SDS011;5123;52.556;13.384;2023-04-23T05:25:52;9.10;;;8.20;;
10162;SDS011;5123;52.556;13.384;2023-04-23T05:28:28;9.23;;;8.27;;
10162;SDS011;5123;52.556;13.384;2023-04-23T05:31:01;8.63;;;7.90;;
10162;SDS011;5123;52.556;13.384;2023-04-23T05:33:34;10.10;;;8.50;;
10162;SDS011;5123;52.556;13.384;2023-04-23T05:36:20;8.67;;;7.67;;
10162;SDS011;5123;52.556;13.384;2023-04-23T05:38:53;8.87;;;8.00;;
10162;SDS011;5123;52.556;13.384;2023-04-23T05:41:26;8.37;;;7.57;;
10162;SDS011;5123;52.556;13.384;2023-04-23T05:44:01;8.87;;;7.97;;
10162;SDS011;5123;52.556;13.384;2023-04-23T05:46:34;8.20;;;7.40;;
10162;SDS011;5123;52.556;13.384;2023-04-23T05:49:07;8.10;;;7.20;;
10162;SDS011;5123;52.556;13.384;2023-04-23T05:51:40;9.40;;;6.90;;
10162;SDS011;5123;52.556;13.384;2023-04-23T05:54:15;8.40;;;7.60;;
10162;SDS011;5123;52.556;13.384;2023-04-23T05:56:48;8.07;;;7.27;;
10162;SDS011;5123;52.556;13.384;2023-04-23T05:59:24;8.57;;;7.40;;
10162;SDS011;5123;52.556;13.384;2023-04-23T06:01:57;9.13;;;7.50;;
10162;SDS011;5123;52.556;13.384;2023-04-23T06:04:30;10.30;;;7.30;;
10162;SDS011;5123;52.556;13.384;2023-04-23T06:07:03;8.80;;;7.80;;
10162;SDS011;5123;52.556;13.384;2023-04-23T06:09:36;8.83;;;6.50;;
10162;SDS011;5123;52.556;13.384;2023-04-23T06:12:09;7.93;;;7.13;;
10162;SDS011;5123;52.556;13.384;2023-04-23T06:14:43;7.27;;;6.57;;
10162;SDS011;5123;52.556;13.384;2023-04-23T06:17:16;8.00;;;6.57;;
10162;SDS011;5123;52.556;13.384;2023-04-23T06:19:49;8.03;;;7.23;;
10162;SDS011;5123;52.556;13.384;2023-04-23T06:22:23;7.90;;;7.10;;
10162;SDS011;5123;52.556;13.384;2023-04-23T06:24:55;8.67;;;7.13;;
10162;SDS011;5123;52.556;13.384;2023-04-23T06:27:28;10.00;;;7.30;;
10162;SDS011;5123;52.556;13.384;2023-04-23T06:30:05;13.40;;;8.23;;
10162;SDS011;5123;52.556;13.384;2023-04-23T06:32:38;7.73;;;7.03;;
10162;SDS011;5123;52.556;13.384;2023-04-23T06:35:11;8.37;;;7.57;;
10162;SDS011;5123;52.556;13.384;2023-04-23T06:37:44;7.97;;;6.70;;
10162;SDS011;5123;52.556;13.384;2023-04-23T06:40:17;8.23;;;7.20;;
10162;SDS011;5123;52.556;13.384;2023-04-23T06:42:50;10.60;;;7.43;;
10162;SDS011;5123;52.556;13.384;2023-04-23T06:45:30;7.27;;;6.57;;
10162;SDS011;5123;52.556;13.384;2023-04-23T06:48:03;7.10;;;6.40;;
10162;SDS011;5123;52.556;13.384;2023-04-23T06:50:38;9.20;;;6.63;;
10162;SDS011;5123;52.556;13.384;2023-04-23T06:53:11;8.17;;;7.00;;
10162;SDS011;5123;52.556;13.384;2023-04-23T06:55:44;8.63;;;7.00;;
10162;SDS011;5123;52.556;13.384;2023-04-23T06:58:22;7.83;;;6.10;;
10162;SDS011;5123;52.556;13.384;2023-04-23T07:01:02;7.00;;;6.40;;
10162;SDS011;5123;52.556;13.384;2023-04-23T07:03:35;6.87;;;6.17;;
10162;SDS011;5123;52.556;13.384;2023-04-23T07:06:08;12.00;;;6.77;;
10162;SDS011;5123;52.556;13.384;2023-04-23T07:08:41;6.93;;;6.20;;
10162;SDS011;5123;52.556;13.384;2023-04-23T07:11:15;6.60;;;6.00;;
10162;SDS011;5123;52.556;13.384;2023-04-23T07:13:48;7.33;;;6.63;;
10162;SDS011;5123;52.556;13.384;2023-04-23T07:16:23;8.10;;;6.40;;
10162;SDS011;5123;52.556;13.384;2023-04-23T07:18:56;8.37;;;6.97;;
10162;SDS011;5123;52.556;13.384;2023-04-23T07:21:29;6.97;;;6.27;;
10162;SDS011;5123;52.556;13.384;2023-04-23T07:24:03;7.07;;;6.40;;
10162;SDS011;5123;52.556;13.384;2023-04-23T07:26:37;9.10;;;6.83;;
10162;SDS011;5123;52.556;13.384;2023-04-23T07:29:10;7.73;;;6.97;;
10162;SDS011;5123;52.556;13.384;2023-04-23T07:31:46;7.70;;;6.93;;
10162;SDS011;5123;52.556;13.384;2023-04-23T07:34:19;8.93;;;7.40;;
10162;SDS011;5123;52.556;13.384;2023-04-23T07:36:52;7.60;;;6.90;;
10162;SDS011;5123;52.556;13.384;2023-04-23T07:39:26;8.80;;;6.73;;
10162;SDS011;5123;52.556;13.384;2023-04-23T07:41:59;7.93;;;7.13;;
10162;SDS011;5123;52.556;13.384;2023-04-23T07:44:32;9.53;;;7.33;;
10162;SDS011;5123;52.556;13.384;2023-04-23T07:47:07;9.93;;;7.77;;
10162;SDS011;5123;52.556;13.384;2023-04-23T07:49:40;10.30;;;8.70;;
10162;SDS011;5123;52.556;13.384;2023-04-23T07:52:14;11.40;;;8.77;;
10162;SDS011;5123;52.556;13.384;2023-04-23T07:54:47;11.00;;;9.77;;
10162;SDS011;5123;52.556;13.384;2023-04-23T07:57:20;12.70;;;8.87;;
10162;SDS011;5123;52.556;13.384;2023-04-23T07:59:53;10.60;;;8.83;;
10162;SDS011;5123;52.556;13.384;2023-04-23T08:02:28;10.77;;;8.73;;
10162;SDS011;5123;52.556;13.384;2023-04-23T08:05:01;9.63;;;8.63;;
10162;SDS011;5123;52.556;13.384;2023-04-23T08:07:34;11.33;;;8.73;;
10162;SDS011;5123;52.556;13.384;2023-04-23T08:10:07;10.37;;;9.30;;
10162;SDS011;5123;52.556;13.384;2023-04-23T08:12:40;10.83;;;9.30;;
10162;SDS011;5123;52.556;13.384;2023-04-23T08:15:13;10.20;;;9.20;;
10162;SDS011;5123;52.556;13.384;2023-04-23T08:17:48;12.17;;;9.73;;
10162;SDS011;5123;52.556;13.384;2023-04-23T08:20:21;13.63;;;9.90;;
10162;SDS011;5123;52.556;13.384;2023-04-23T08:22:54;12.17;;;10.03;;
10162;SDS011;5123;52.556;13.384;2023-04-23T08:25:27;14.20;;;10.03;;
10162;SDS011;5123;52.556;13.384;2023-04-23T08:28:00;12.27;;;10.03;;
10162;SDS011;5123;52.556;13.384;2023-04-23T08:30:35;11.93;;;10.73;;
10162;SDS011;5123;52.556;13.384;2023-04-23T08:33:10;10.83;;;9.73;;
10162;SDS011;5123;52.556;13.384;2023-04-23T08:35:43;10.50;;;9.40;;
10162;SDS011;5123;52.556;13.384;2023-04-23T08:38:16;11.80;;;10.00;;
10162;SDS011;5123;52.556;13.384;2023-04-23T08:40:49;12.10;;;9.33;;
10162;SDS011;5123;52.556;13.384;2023-04-23T08:43:30;10.60;;;9.53;;
10162;SDS011;5123;52.556;13.384;2023-04-23T08:46:03;11.23;;;10.13;;
10162;SDS011;5123;52.556;13.384;2023-04-23T08:48:37;13.83;;;9.90;;
10162;SDS011;5123;52.556;13.384;2023-04-23T08:51:12;10.47;;;9.37;;
10162;SDS011;5123;52.556;13.384;2023-04-23T08:53:50;10.80;;;9.70;;
10162;SDS011;5123;52.556;13.384;2023-04-23T08:56:23;11.03;;;9.70;;
10162;SDS011;5123;52.556;13.384;2023-04-23T08:58:57;9.73;;;8.70;;
10162;SDS011;5123;52.556;13.384;2023-04-23T09:01:30;10.23;;;9.30;;
10162;SDS011;5123;52.556;13.384;2023-04-23T09:04:04;10.67;;;9.63;;
10162;SDS011;5123;52.556;13.384;2023-04-23T09:06:40;11.03;;;9.50;;
10162;SDS011;5123;52.556;13.384;2023-04-23T09:09:14;11.50;;;9.70;;
10162;SDS011;5123;52.556;13.384;2023-04-23T09:11:47;10.93;;;9.93;;
10162;SDS011;5123;52.556;13.384;2023-04-23T09:14:21;12.53;;;10.07;;
10162;SDS011;5123;52.556;13.384;2023-04-23T09:16:55;10.43;;;9.30;;
10162;SDS011;5123;52.556;13.384;2023-04-23T09:19:29;10.67;;;9.57;;
10162;SDS011;5123;52.556;13.384;2023-04-23T09:22:03;10.33;;;9.33;;
10162;SDS011;5123;52.556;13.384;2023-04-23T09:24:36;9.23;;;8.43;;
10162;SDS011;5123;52.556;13.384;2023-04-23T09:27:09;9.87;;;8.87;;
10162;SDS011;5123;52.556;13.384;2023-04-23T09:29:43;9.63;;;8.80;;
10162;SDS011;5123;52.556;13.384;2023-04-23T09:32:16;11.40;;;10.30;;
10162;SDS011;5123;52.556;13.384;2023-04-23T09:34:51;10.53;;;9.40;;
10162;SDS011;5123;52.556;13.384;2023-04-23T09:37:28;6.33;;;5.73;;
10162;SDS011;5123;52.556;13.384;2023-04-23T09:40:01;6.30;;;5.70;;
10162;SDS011;5123;52.556;13.384;2023-04-23T09:42:35;7.07;;;5.90;;
10162;SDS011;5123;52.556;13.384;2023-04-23T09:45:10;5.13;;;4.63;;
10162;SDS011;5123;52.556;13.384;2023-04-23T09:47:49;5.33;;;4.83;;
10162;SDS011;5123;52.556;13.384;2023-04-23T09:50:31;4.73;;;4.30;;
10162;SDS011;5123;52.556;13.384;2023-04-23T09:53:05;5.17;;;4.47;;
10162;SDS011;5123;52.556;13.384;2023-04-23T09:55:39;5.23;;;4.73;;
10162;SDS011;5123;52.556;13.384;2023-04-23T09:58:15;5.63;;;4.60;;
10162;SDS011;5123;52.556;13.384;2023-04-23T10:00:48;5.83;;;4.67;;
10162;SDS011;5123;52.556;13.384;2023-04-23T10:03:25;5.27;;;4.77;;
10162;SDS011;5123;52.556;13.384;2023-04-23T10:06:00;4.90;;;4.50;;
10162;SDS011;5123;52.556;13.384;2023-04-23T10:08:33;5.20;;;4.70;;
10162;SDS011;5123;52.556;13.384;2023-04-23T10:11:06;6.83;;;6.00;;
10162;SDS011;5123;52.556;13.384;2023-04-23T10:13:51;4.57;;;4.17;;
10162;SDS011;5123;52.556;13.384;2023-04-23T10:16:25;5.13;;;4.63;;
10162;SDS011;5123;52.556;13.384;2023-04-23T10:19:13;5.07;;;3.90;;
10162;SDS011;5123;52.556;13.384;2023-04-23T10:21:47;4.80;;;4.40;;
10162;SDS011;5123;52.556;13.384;2023-04-23T10:24:31;5.00;;;4.50;;
10162;SDS011;5123;52.556;13.384;2023-04-23T10:27:04;4.70;;;4.30;;
10162;SDS011;5123;52.556;13.384;2023-04-23T10:30:10;5.27;;;4.40;;
10162;SDS011;5123;52.556;13.384;2023-04-23T10:32:43;4.13;;;3.73;;
10162;SDS011;5123;52.556;13.384;2023-04-23T10:35:17;4.33;;;3.93;;
10162;SDS011;5123;52.556;13.384;2023-04-23T10:37:52;4.53;;;4.13;;
10162;SDS011;5123;52.556;13.384;2023-04-23T10:40:25;5.97;;;5.37;;
10162;SDS011;5123;52.556;13.384;2023-04-23T10:43:00;6.80;;;6.10;;
10162;SDS011;5123;52.556;13.384;2023-04-23T10:45:33;7.80;;;7.00;;
10162;SDS011;5123;52.556;13.384;2023-04-23T10:48:06;7.97;;;6.50;;
10162;SDS011;5123;52.556;13.384;2023-04-23T10:50:40;7.40;;;6.70;;
10162;SDS011;5123;52.556;13.384;2023-04-23T10:53:36;8.60;;;6.80;;
10162;SDS011;5123;52.556;13.384;2023-04-23T10:56:09;9.27;;;8.10;;
10162;SDS011;5123;52.556;13.384;2023-04-23T10:58:52;8.07;;;7.27;;
10162;SDS011;5123;52.556;13.384;2023-04-23T11:01:25;8.30;;;7.40;;
10162;SDS011;5123;52.556;13.384;2023-04-23T11:04:03;8.37;;;7.53;;
10162;SDS011;5123;52.556;13.384;2023-04-23T11:06:54;8.67;;;7.83;;
10162;SDS011;5123;52.556;13.384;2023-04-23T11:09:31;8.80;;;7.83;;
10162;SDS011;5123;52.556;13.384;2023-04-23T11:12:08;8.83;;;7.93;;
10162;SDS011;5123;52.556;13.384;2023-04-23T11:14:44;11.17;;;8.30;;
10162;SDS011;5123;52.556;13.384;2023-04-23T11:17:20;10.20;;;8.37;;
10162;SDS011;5123;52.556;13.384;2023-04-23T11:20:05;10.23;;;9.20;;
10162;SDS011;5123;52.556;13.384;2023-04-23T11:22:44;9.53;;;8.57;;
10162;SDS011;5123;52.556;13.384;2023-04-23T11:25:19;10.87;;;8.90;;
10162;SDS011;5123;52.556;13.384;2023-04-23T11:27:54;11.47;;;9.87;;
10162;SDS011;5123;52.556;13.384;2023-04-23T11:30:27;10.57;;;9.47;;
10162;SDS011;5123;52.556;13.384;2023-04-23T11:33:03;10.47;;;9.47;;
10162;SDS011;5123;52.556;13.384;2023-04-23T11:35:37;10.97;;;9.43;;
10162;SDS011;5123;52.556;13.384;2023-04-23T11:38:12;10.23;;;9.23;;
10162;SDS011;5123;52.556;13.384;2023-04-23T11:40:47;11.67;;;10.10;;
10162;SDS011;5123;52.556;13.384;2023-04-23T11:43:23;11.43;;;10.23;;
10162;SDS011;5123;52.556;13.384;2023-04-23T11:45:59;12.23;;;10.10;;
10162;SDS011;5123;52.556;13.384;2023-04-23T11:48:33;10.90;;;9.70;;
10162;SDS011;5123;52.556;13.384;2023-04-23T11:51:07;11.80;;;10.03;;
10162;SDS011;5123;52.556;13.384;2023-04-23T11:53:43;11.03;;;9.27;;
10162;SDS011;5123;52.556;13.384;2023-04-23T11:56:17;9.83;;;8.83;;
10162;SDS011;5123;52.556;13.384;2023-04-23T11:58:57;10.53;;;9.43;;
10162;SDS011;5123;52.556;13.384;2023-04-23T12:01:41;11.03;;;9.70;;
10162;SDS011;5123;52.556;13.384;2023-04-23T12:04:14;10.73;;;9.43;;
10162;SDS011;5123;52.556;13.384;2023-04-23T12:06:48;10.47;;;8.50;;
10162;SDS011;5123;52.556;13.384;2023-04-23T12:09:22;9.60;;;8.27;;
10162;SDS011;5123;52.556;13.384;2023-04-23T12:11:57;8.73;;;7.63;;
10162;SDS011;5123;52.556;13.384;2023-04-23T12:14:30;7.13;;;6.43;;
10162;SDS011;5123;52.556;13.384;2023-04-23T12:17:10;7.13;;;6.43;;
10162;SDS011;5123;52.556;13.384;2023-04-23T12:19:43;7.33;;;6.63;;
10162;SDS011;5123;52.556;13.384;2023-04-23T12:22:18;6.93;;;6.23;;
10162;SDS011;5123;52.556;13.384;2023-04-23T12:24:57;8.10;;;7.30;;
10162;SDS011;5123;52.556;13.384;2023-04-23T12:27:39;8.23;;;6.80;;
10162;SDS011;5123;52.556;13.384;2023-04-23T12:30:13;8.47;;;7.03;;
10162;SDS011;5123;52.556;13.384;2023-04-23T12:32:46;6.60;;;5.90;;
10162;SDS011;5123;52.556;13.384;2023-04-23T12:35:19;5.27;;;4.77;;
10162;SDS011;5123;52.556;13.384;2023-04-23T12:37:54;7.67;;;6.97;;
10162;SDS011;5123;52.556;13.384;2023-04-23T12:40:29;6.83;;;6.10;;
10162;SDS011;5123;52.556;13.384;2023-04-23T12:43:03;5.73;;;5.17;;
10162;SDS011;5123;52.556;13.384;2023-04-23T12:45:39;5.47;;;5.00;;
10162;SDS011;5123;52.556;13.384;2023-04-23T12:48:12;4.50;;;4.10;;
10162;SDS011;5123;52.556;13.384;2023-04-23T12:50:46;3.77;;;3.47;;
10162;SDS011;5123;52.556;13.384;2023-04-23T12:53:20;4.37;;;3.40;;
10162;SDS011;5123;52.556;13.384;2023-04-23T12:55:52;6.07;;;5.07;;
10162;SDS011;5123;52.556;13.384;2023-04-23T12:58:27;5.60;;;5.10;;
10162;SDS011;5123;52.556;13.384;2023-04-23T13:01:01;6.60;;;4.77;;
10162;SDS011;5123;52.556;13.384;2023-04-23T13:03:38;7.10;;;5.93;;
10162;SDS011;5123;52.556;13.384;2023-04-23T13:06:11;7.10;;;5.83;;
10162;SDS011;5123;52.556;13.384;2023-04-23T13:08:47;6.70;;;5.00;;
10162;SDS011;5123;52.556;13.384;2023-04-23T13:11:20;5.10;;;4.60;;
10162;SDS011;5123;52.556;13.384;2023-04-23T13:13:55;5.30;;;4.83;;
10162;SDS011;5123;52.556;13.384;2023-04-23T13:16:29;4.73;;;4.33;;
10162;SDS011;5123;52.556;13.384;2023-04-23T13:19:03;6.53;;;4.60;;
10162;SDS011;5123;52.556;13.384;2023-04-23T13:21:36;5.67;;;5.00;;
10162;SDS011;5123;52.556;13.384;2023-04-23T13:24:10;4.80;;;4.30;;
10162;SDS011;5123;52.556;13.384;2023-04-23T13:26:43;5.13;;;4.67;;
10162;SDS011;5123;52.556;13.384;2023-04-23T13:29:18;6.47;;;5.10;;
10162;SDS011;5123;52.556;13.384;2023-04-23T13:31:51;4.90;;;4.43;;
10162;SDS011;5123;52.556;13.384;2023-04-23T13:34:25;6.50;;;4.33;;
10162;SDS011;5123;52.556;13.384;2023-04-23T13:36:58;4.23;;;3.73;;
10162;SDS011;5123;52.556;13.384;2023-04-23T13:39:35;4.20;;;3.80;;
10162;SDS011;5123;52.556;13.384;2023-04-23T13:42:12;5.77;;;3.77;;
10162;SDS011;5123;52.556;13.384;2023-04-23T13:44:47;4.47;;;4.07;;
10162;SDS011;5123;52.556;13.384;2023-04-23T13:47:20;3.50;;;3.20;;
10162;SDS011;5123;52.556;13.384;2023-04-23T13:49:53;3.27;;;3.03;;
10162;SDS011;5123;52.556;13.384;2023-04-23T13:52:27;3.20;;;2.90;;
10162;SDS011;5123;52.556;13.384;2023-04-23T13:55:02;3.47;;;2.90;;
10162;SDS011;5123;52.556;13.384;2023-04-23T13:57:35;3.17;;;2.83;;
10162;SDS011;5123;52.556;13.384;2023-04-23T14:00:11;3.13;;;2.67;;
10162;SDS011;5123;52.556;13.384;2023-04-23T14:02:44;3.13;;;2.83;;
10162;SDS011;5123;52.556;13.384;2023-04-23T14:05:17;4.23;;;2.63;;
10162;SDS011;5123;52.556;13.384;2023-04-23T14:07:50;3.93;;;2.60;;
10162;SDS011;5123;52.556;13.384;2023-04-23T14:10:24;3.93;;;3.53;;
10162;SDS011;5123;52.556;13.384;2023-04-23T14:12:57;3.13;;;2.83;;
10162;SDS011;5123;52.556;13.384;2023-04-23T14:15:33;4.87;;;3.20;;
10162;SDS011;5123;52.556;13.384;2023-04-23T14:18:08;2.43;;;2.23;;
10162;SDS011;5123;52.556;13.384;2023-04-23T14:20:41;2.60;;;2.40;;
10162;SDS011;5123;52.556;13.384;2023-04-23T14:23:34;3.53;;;2.63;;
10162;SDS011;5123;52.556;13.384;2023-04-23T14:26:19;2.80;;;2.53;;
10162;SDS011;5123;52.556;13.384;2023-04-23T14:29:08;2.40;;;2.20;;
10162;SDS011;5123;52.556;13.384;2023-04-23T14:31:43;2.13;;;1.97;;
10162;SDS011;5123;52.556;13.384;2023-04-23T14:34:17;2.27;;;2.07;;
10162;SDS011;5123;52.556;13.384;2023-04-23T14:36:50;2.73;;;1.80;;
10162;SDS011;5123;52.556;13.384;2023-04-23T14:39:23;2.20;;;2.00;;
10162;SDS011;5123;52.556;13.384;2023-04-23T14:41:57;2.77;;;1.80;;
10162;SDS011;5123;52.556;13.384;2023-04-23T14:44:30;2.20;;;2.00;;
10162;SDS011;5123;52.556;13.384;2023-04-23T14:47:04;2.43;;;2.23;;
10162;SDS011;5123;52.556;13.384;2023-04-23T14:49:40;2.70;;;2.20;;
10162;SDS011;5123;52.556;13.384;2023-04-23T14:52:13;2.33;;;2.10;;
10162;SDS011;5123;52.556;13.384;2023-04-23T14:54:46;2.43;;;2.20;;
10162;SDS011;5123;52.556;13.384;2023-04-23T14:57:19;2.60;;;2.00;;
10162;SDS011;5123;52.556;13.384;2023-04-23T14:59:53;2.60;;;1.93;;
10162;SDS011;5123;52.556;13.384;2023-04-23T15:02:29;2.20;;;2.00;;
10162;SDS011;5123;52.556;13.384;2023-04-23T15:05:02;2.33;;;2.10;;
10162;SDS011;5123;52.556;13.384;2023-04-23T15:07:39;1.93;;;1.73;;
10162;SDS011;5123;52.556;13.384;2023-04-23T15:10:17;2.13;;;1.87;;
10162;SDS011;5123;52.556;13.384;2023-04-23T15:12:54;1.57;;;1.47;;
10162;SDS011;5123;52.556;13.384;2023-04-23T15:15:37;1.60;;;1.50;;
10162;SDS011;5123;52.556;13.384;2023-04-23T15:18:17;2.27;;;2.07;;
10162;SDS011;5123;52.556;13.384;2023-04-23T15:20:50;3.00;;;2.00;;